createdAt,value
2019-02-20T00:00:06.262Z,5.50
2019-02-20T00:02:34.793Z,5.60
2019-02-20T00:05:03.335Z,5.97
2019-02-20T00:07:31.795Z,5.80
2019-02-20T00:10:00.382Z,4.50
2019-02-20T00:12:28.897Z,4.73
2019-02-20T00:14:57.369Z,5.60
2019-02-20T00:17:25.876Z,5.43
2019-02-20T00:19:54.388Z,6.03
2019-02-20T00:22:22.946Z,5.37
2019-02-20T00:24:51.416Z,5.13
2019-02-20T00:27:19.891Z,4.60
2019-02-20T00:29:48.455Z,5.23
2019-02-20T00:32:16.912Z,5.97
2019-02-20T00:34:45.395Z,5.80
2019-02-20T00:37:13.859Z,6.10
2019-02-20T00:39:42.315Z,5.60
2019-02-20T00:42:10.956Z,5.70
2019-02-20T00:44:55.703Z,5.53
2019-02-20T00:47:42.302Z,5.50
2019-02-20T00:50:11.727Z,5.20
2019-02-20T00:52:49.572Z,5.80
2019-02-20T00:55:12.085Z,4.70
2019-02-20T00:57:40.581Z,6.13
2019-02-20T01:00:12.255Z,5.53
2019-02-20T01:02:40.777Z,5.77
2019-02-20T01:05:09.483Z,6.13
2019-02-20T01:07:37.979Z,5.47
2019-02-20T01:10:07.885Z,4.77
2019-02-20T01:12:36.341Z,5.20
2019-02-20T01:15:10.477Z,4.90
2019-02-20T01:17:38.933Z,4.80
2019-02-20T01:20:09.663Z,6.27
2019-02-20T01:22:38.122Z,5.57
2019-02-20T01:25:06.920Z,5.10
2019-02-20T01:27:35.461Z,5.07
2019-02-20T01:30:06.448Z,5.40
2019-02-20T01:32:34.980Z,5.47
2019-02-20T01:35:03.506Z,4.37
2019-02-20T01:37:31.972Z,5.87
2019-02-20T01:40:00.439Z,5.53
2019-02-20T01:42:28.897Z,5.43
2019-02-20T01:44:57.389Z,5.40
2019-02-20T01:47:25.854Z,4.77
2019-02-20T01:49:54.303Z,5.23
2019-02-20T01:52:22.759Z,4.90
2019-02-20T01:54:51.217Z,5.27
2019-02-20T01:57:19.672Z,4.43
2019-02-20T01:59:48.136Z,5.27
2019-02-20T02:02:16.667Z,5.07
2019-02-20T02:04:45.136Z,4.80
2019-02-20T02:07:13.976Z,4.53
2019-02-20T02:09:42.430Z,5.20
2019-02-20T02:12:10.904Z,4.50
2019-02-20T02:14:39.354Z,4.70
2019-02-20T02:17:07.896Z,5.40
2019-02-20T02:19:36.354Z,4.80
2019-02-20T02:22:04.898Z,6.00
2019-02-20T02:24:33.356Z,5.07
2019-02-20T02:27:01.828Z,5.17
2019-02-20T02:29:30.350Z,5.50
2019-02-20T02:31:58.822Z,5.33
2019-02-20T02:34:27.350Z,5.07
2019-02-20T02:36:55.820Z,4.80
2019-02-20T02:39:24.276Z,5.77
2019-02-20T02:41:52.749Z,5.33
2019-02-20T02:44:21.216Z,4.80
2019-02-20T02:46:49.691Z,6.00
2019-02-20T02:49:18.166Z,6.43
2019-02-20T02:51:46.698Z,5.67
2019-02-20T02:54:15.257Z,4.93
2019-02-20T02:56:43.727Z,4.90
2019-02-20T02:59:12.265Z,5.40
2019-02-20T03:01:40.738Z,6.00
2019-02-20T03:04:09.184Z,5.77
2019-02-20T03:06:37.659Z,5.27
2019-02-20T03:09:06.461Z,6.63
2019-02-20T03:11:36.579Z,5.93
2019-02-20T03:14:05.125Z,5.90
2019-02-20T03:16:33.580Z,5.70
2019-02-20T03:19:02.049Z,4.93
2019-02-20T03:21:30.498Z,5.80
2019-02-20T03:23:58.952Z,6.47
2019-02-20T03:26:27.477Z,5.87
2019-02-20T03:28:55.950Z,5.47
2019-02-20T03:31:24.419Z,5.37
2019-02-20T03:33:52.937Z,5.20
2019-02-20T03:36:21.456Z,5.37
2019-02-20T03:38:49.928Z,5.70
2019-02-20T03:41:18.554Z,4.87
2019-02-20T03:43:47.022Z,6.13
2019-02-20T03:46:15.555Z,5.53
2019-02-20T03:48:44.118Z,5.70
2019-02-20T03:51:12.571Z,6.00
2019-02-20T03:53:50.862Z,5.53
2019-02-20T03:56:11.347Z,5.17
2019-02-20T03:58:39.833Z,5.43
2019-02-20T04:01:08.293Z,5.20
2019-02-20T04:03:36.754Z,6.53
2019-02-20T04:06:05.236Z,5.43
2019-02-20T04:08:33.772Z,5.10
2019-02-20T04:11:02.295Z,5.80
2019-02-20T04:13:30.843Z,6.07
2019-02-20T04:15:59.313Z,5.20
2019-02-20T04:18:27.817Z,5.47
2019-02-20T04:20:56.299Z,5.87
2019-02-20T04:23:24.819Z,6.80
2019-02-20T04:25:53.318Z,6.07
2019-02-20T04:28:21.780Z,6.40
2019-02-20T04:30:50.255Z,6.27
2019-02-20T04:33:18.721Z,7.20
2019-02-20T04:35:47.179Z,6.33
2019-02-20T04:38:15.680Z,6.77
2019-02-20T04:40:44.137Z,6.87
2019-02-20T04:43:12.645Z,6.87
2019-02-20T04:45:41.092Z,6.90
2019-02-20T04:48:09.575Z,6.87
2019-02-20T04:50:38.098Z,6.53
2019-02-20T04:53:06.589Z,7.20
2019-02-20T04:55:35.113Z,6.20
2019-02-20T04:58:18.513Z,8.13
2019-02-20T05:00:47.103Z,6.63
2019-02-20T05:03:15.583Z,7.00
2019-02-20T05:05:44.192Z,8.43
2019-02-20T05:08:12.717Z,6.97
2019-02-20T05:10:41.184Z,7.33
2019-02-20T05:13:09.697Z,8.10
2019-02-20T05:15:38.200Z,6.20
2019-02-20T05:18:06.731Z,7.03
2019-02-20T05:20:35.258Z,7.23
2019-02-20T05:23:03.722Z,6.90
2019-02-20T05:25:32.293Z,7.37
2019-02-20T05:28:00.825Z,6.83
2019-02-20T05:30:29.387Z,8.20
2019-02-20T05:32:58.013Z,6.83
2019-02-20T05:35:26.553Z,7.10
2019-02-20T05:37:55.030Z,7.00
2019-02-20T05:40:23.687Z,6.83
2019-02-20T05:43:07.390Z,7.40
2019-02-20T05:45:35.910Z,6.93
2019-02-20T05:48:04.374Z,7.27
2019-02-20T05:50:32.968Z,7.07
2019-02-20T05:53:01.680Z,8.20
2019-02-20T05:55:30.211Z,9.03
2019-02-20T05:57:59.112Z,8.23
2019-02-20T06:00:27.668Z,8.90
2019-02-20T06:02:56.362Z,8.90
2019-02-20T06:05:28.078Z,8.13
2019-02-20T06:07:56.950Z,8.20
2019-02-20T06:10:25.684Z,8.10
2019-02-20T06:12:54.442Z,8.57
2019-02-20T06:15:23.205Z,7.63
2019-02-20T06:17:51.920Z,9.20
2019-02-20T06:20:22.135Z,7.97
2019-02-20T06:23:00.019Z,8.10
2019-02-20T06:25:28.518Z,9.30
2019-02-20T06:27:57.205Z,8.90
2019-02-20T06:30:25.792Z,8.30
2019-02-20T06:32:54.540Z,9.53
2019-02-20T06:35:23.193Z,8.80
2019-02-20T06:37:51.982Z,9.63
2019-02-20T06:40:20.541Z,8.70
2019-02-20T06:42:49.016Z,9.03
2019-02-20T06:45:17.636Z,10.00
2019-02-20T06:47:46.120Z,9.20
2019-02-20T06:50:15.016Z,11.03
2019-02-20T06:52:43.562Z,10.50
2019-02-20T06:55:12.510Z,8.80
2019-02-20T06:57:41.034Z,8.27
2019-02-20T07:00:14.073Z,10.00
2019-02-20T07:02:42.575Z,8.80
2019-02-20T07:05:31.187Z,8.40
2019-02-20T07:08:28.660Z,9.70
2019-02-20T07:11:05.956Z,10.63
2019-02-20T07:13:37.622Z,8.97
2019-02-20T07:16:28.922Z,9.90
2019-02-20T07:19:06.481Z,9.27
2019-02-20T07:21:43.617Z,9.37
2019-02-20T07:24:18.147Z,9.87
2019-02-20T07:26:55.726Z,9.77
2019-02-20T07:29:33.713Z,10.70
2019-02-20T07:32:04.480Z,10.17
2019-02-20T07:34:41.685Z,9.07
2019-02-20T07:37:10.245Z,10.77
2019-02-20T07:39:38.806Z,10.20
2019-02-20T07:42:09.795Z,12.30
2019-02-20T07:44:40.831Z,10.70
2019-02-20T07:47:09.601Z,11.53
2019-02-20T07:49:38.297Z,12.20
2019-02-20T07:52:06.843Z,10.47
2019-02-20T07:54:39.586Z,11.70
2019-02-20T07:57:08.255Z,12.50
2019-02-20T07:59:36.971Z,12.27
2019-02-20T08:02:05.820Z,11.60
2019-02-20T08:04:39.621Z,12.23
2019-02-20T08:07:09.882Z,12.17
2019-02-20T08:10:01.368Z,11.50
2019-02-20T08:12:30.087Z,12.50
2019-02-20T08:14:59.155Z,12.57
2019-02-20T08:17:28.132Z,10.73
2019-02-20T08:19:57.129Z,12.33
2019-02-20T08:22:28.881Z,11.30
2019-02-20T08:25:03.336Z,12.33
2019-02-20T08:27:32.339Z,12.30
2019-02-20T08:30:04.279Z,11.93
2019-02-20T08:32:33.361Z,12.40
2019-02-20T08:35:29.130Z,10.90
2019-02-20T08:38:23.371Z,11.57
2019-02-20T08:44:18.089Z,10.60
2019-02-20T08:46:31.567Z,10.97
2019-02-20T08:49:00.125Z,11.00
2019-02-20T08:51:28.929Z,11.77
2019-02-20T08:54:30.548Z,11.27
2019-02-20T08:57:12.467Z,9.77
2019-02-20T09:00:00.790Z,11.53
2019-02-20T09:02:36.664Z,12.47
2019-02-20T09:15:34.152Z,11.37
2019-02-20T09:18:29.812Z,10.67
2019-02-20T09:21:24.931Z,10.80
2019-02-20T09:23:53.847Z,10.33
2019-02-20T09:26:25.455Z,10.20
2019-02-20T09:29:00.204Z,11.67
2019-02-20T09:32:04.615Z,11.10
2019-02-20T09:51:03.505Z,10.97
2019-02-20T09:53:32.020Z,10.70
2019-02-20T09:56:07.404Z,11.90
2019-02-20T09:58:42.981Z,10.77
2019-02-20T10:01:14.703Z,11.80
2019-02-20T10:03:44.998Z,12.57
2019-02-20T10:06:16.259Z,15.93
2019-02-20T10:08:45.302Z,11.60
2019-02-20T10:11:14.037Z,12.20
2019-02-20T10:13:48.954Z,11.87
2019-02-20T10:33:20.218Z,11.90
2019-02-20T10:35:48.757Z,12.30
2019-02-20T10:38:20.433Z,12.10
2019-02-20T10:40:48.996Z,10.90
2019-02-20T10:43:17.557Z,14.20
2019-02-20T10:45:46.382Z,11.20
2019-02-20T10:48:14.924Z,11.20
2019-02-20T10:50:43.404Z,11.53
2019-02-20T10:53:11.938Z,10.70
2019-02-20T10:55:40.559Z,12.33
2019-02-20T10:58:12.130Z,10.60
2019-02-20T11:00:40.815Z,11.27
2019-02-20T11:03:09.542Z,11.20
2019-02-20T11:05:38.138Z,10.57
2019-02-20T11:08:08.364Z,10.97
2019-02-20T11:10:36.990Z,9.93
2019-02-20T11:13:10.006Z,9.60
2019-02-20T11:19:17.310Z,9.13
2019-02-20T11:21:52.078Z,9.90
2019-02-20T11:24:35.474Z,8.40
2019-02-20T11:27:08.346Z,8.70
2019-02-20T11:29:36.924Z,8.37
2019-02-20T11:32:05.407Z,7.73
2019-02-20T11:34:33.875Z,8.03
2019-02-20T11:37:02.369Z,7.33
2019-02-20T11:39:37.469Z,7.67
2019-02-20T11:42:01.072Z,7.47
2019-02-20T11:44:29.551Z,7.70
2019-02-20T11:46:58.079Z,7.70
2019-02-20T11:49:26.625Z,7.47
2019-02-20T11:51:55.101Z,7.20
2019-02-20T11:54:23.598Z,6.53
2019-02-20T11:56:52.164Z,6.77
2019-02-20T11:59:20.632Z,7.23
2019-02-20T12:01:49.110Z,6.87
2019-02-20T12:04:18.580Z,7.73
2019-02-20T12:06:47.105Z,7.63
2019-02-20T12:09:15.601Z,7.27
2019-02-20T12:11:44.137Z,7.20
2019-02-20T12:14:12.602Z,6.07
2019-02-20T12:16:41.142Z,5.73
2019-02-20T12:19:09.669Z,5.20
2019-02-20T12:21:38.134Z,4.90
2019-02-20T12:24:06.684Z,5.50
2019-02-20T12:26:35.433Z,4.63
2019-02-20T12:29:04.063Z,5.03
2019-02-20T12:31:32.608Z,4.90
2019-02-20T12:34:01.681Z,4.90
2019-02-20T12:36:38.893Z,4.40
2019-02-20T12:39:07.435Z,4.90
2019-02-20T12:41:35.918Z,6.03
2019-02-20T12:44:04.414Z,3.93
2019-02-20T12:46:33.242Z,4.30
2019-02-20T12:49:01.849Z,4.20
2019-02-20T12:51:30.344Z,4.23
2019-02-20T12:53:58.873Z,4.67
2019-02-20T12:56:27.337Z,4.67
2019-02-20T12:58:55.807Z,4.67
2019-02-20T13:01:24.275Z,4.33
2019-02-20T13:03:52.731Z,4.30
2019-02-20T13:06:21.307Z,4.57
2019-02-20T13:08:49.920Z,4.33
2019-02-20T13:11:18.406Z,4.83
2019-02-20T13:13:46.962Z,4.10
2019-02-20T13:16:15.447Z,3.90
2019-02-20T13:18:43.931Z,4.37
2019-02-20T13:21:12.404Z,4.80
2019-02-20T13:23:40.876Z,4.60
2019-02-20T13:26:09.338Z,4.23
2019-02-20T13:28:37.838Z,4.30
2019-02-20T13:31:08.743Z,4.60
2019-02-20T13:33:37.280Z,5.10
2019-02-20T13:36:06.207Z,4.93
2019-02-20T13:38:34.806Z,5.30
2019-02-20T13:41:03.371Z,4.27
2019-02-20T13:43:31.923Z,4.70
2019-02-20T13:46:00.501Z,4.53
2019-02-20T13:48:28.994Z,3.80
2019-02-20T13:50:57.551Z,4.10
2019-02-20T13:53:26.117Z,3.90
2019-02-20T13:55:54.704Z,4.40
2019-02-20T13:58:23.331Z,4.63
2019-02-20T14:00:51.871Z,4.13
2019-02-20T14:03:20.430Z,4.17
2019-02-20T14:05:48.962Z,4.10
2019-02-20T14:08:17.503Z,4.23
2019-02-20T14:10:46.074Z,4.57
2019-02-20T14:13:14.790Z,3.50
2019-02-20T14:15:46.968Z,4.60
2019-02-20T14:18:15.516Z,4.30
2019-02-20T14:20:44.350Z,4.70
2019-02-20T14:23:12.807Z,4.40
2019-02-20T14:25:41.355Z,4.40
2019-02-20T14:28:09.896Z,3.70
2019-02-20T14:30:38.518Z,4.60
2019-02-20T14:33:07.083Z,4.13
2019-02-20T14:35:35.616Z,4.50
2019-02-20T14:38:04.219Z,3.70
2019-02-20T14:40:32.762Z,4.67
2019-02-20T14:43:01.409Z,4.83
2019-02-20T14:45:29.989Z,4.70
2019-02-20T14:47:58.735Z,4.40
2019-02-20T14:50:27.284Z,4.47
2019-02-20T14:52:55.858Z,4.30
2019-02-20T14:55:24.424Z,5.00
2019-02-20T14:57:52.961Z,4.83
2019-02-20T15:00:23.568Z,5.20
2019-02-20T15:02:52.115Z,5.10
2019-02-20T15:05:20.987Z,6.27
2019-02-20T15:07:49.534Z,4.77
2019-02-20T15:10:18.068Z,4.50
2019-02-20T15:12:46.767Z,4.90
2019-02-20T15:15:15.291Z,4.60
2019-02-20T15:17:43.906Z,5.00
2019-02-20T15:20:12.543Z,5.40
2019-02-20T15:22:41.041Z,5.60
2019-02-20T15:25:10.225Z,5.10
2019-02-20T15:27:38.834Z,5.57
2019-02-20T15:30:12.175Z,4.70
2019-02-20T15:32:40.788Z,5.77
2019-02-20T15:35:09.761Z,5.47
2019-02-20T15:37:38.309Z,5.27
2019-02-20T15:40:10.643Z,5.63
2019-02-20T15:42:39.187Z,6.03
2019-02-20T15:45:09.939Z,5.47
2019-02-20T15:47:38.505Z,5.30
2019-02-20T15:50:12.366Z,5.40
2019-02-20T15:52:40.925Z,5.20
2019-02-20T15:55:11.430Z,4.90
2019-02-20T15:57:40.072Z,5.90
2019-02-20T16:00:18.456Z,5.40
2019-02-20T16:02:47.070Z,6.30
2019-02-20T16:05:16.256Z,7.23
2019-02-20T16:07:44.810Z,5.70
2019-02-20T16:10:13.334Z,4.90
2019-02-20T16:12:43.322Z,6.13
2019-02-20T16:15:12.114Z,6.07
2019-02-20T16:17:40.676Z,5.40
2019-02-20T16:20:11.938Z,5.10
2019-02-20T16:22:40.559Z,6.20
2019-02-20T16:25:14.135Z,5.73
2019-02-20T16:27:47.182Z,5.97
2019-02-20T16:30:14.263Z,6.10
2019-02-20T16:32:42.885Z,6.43
2019-02-20T16:35:12.291Z,5.80
2019-02-20T16:37:40.901Z,7.00
2019-02-20T16:40:15.029Z,6.70
2019-02-20T16:42:43.609Z,7.13
2019-02-20T16:45:23.499Z,6.57
2019-02-20T16:47:54.025Z,6.70
2019-02-20T16:50:22.603Z,6.07
2019-02-20T16:52:51.175Z,6.80
2019-02-20T16:55:19.978Z,9.30
2019-02-20T16:57:56.275Z,7.80
2019-02-20T17:00:21.554Z,6.80
2019-02-20T17:02:50.395Z,9.43
2019-02-20T17:05:19.026Z,7.50
2019-02-20T17:07:47.641Z,7.80
2019-02-20T17:10:16.488Z,8.37
2019-02-20T17:12:45.133Z,9.00
2019-02-20T17:15:15.332Z,9.53
2019-02-20T17:17:44.040Z,9.30
2019-02-20T17:20:18.275Z,10.30
2019-02-20T17:22:46.877Z,8.80
2019-02-20T17:25:15.977Z,9.03
2019-02-20T17:27:44.576Z,8.93
2019-02-20T17:30:14.880Z,9.77
2019-02-20T17:32:43.670Z,9.00
2019-02-20T17:35:12.602Z,9.63
2019-02-20T17:37:41.153Z,9.43
2019-02-20T17:40:12.258Z,9.60
2019-02-20T17:42:40.918Z,10.50
2019-02-20T17:45:11.920Z,11.43
2019-02-20T17:47:42.970Z,9.67
2019-02-20T17:50:16.310Z,10.50
2019-02-20T17:52:44.922Z,10.17
2019-02-20T17:55:13.725Z,11.27
2019-02-20T17:57:42.293Z,10.80
2019-02-20T18:00:17.084Z,10.50
2019-02-20T18:02:45.651Z,10.47
2019-02-20T18:05:14.130Z,10.70
2019-02-20T18:07:48.791Z,11.80
2019-02-20T18:10:13.088Z,10.80
2019-02-20T18:12:41.595Z,10.80
2019-02-20T18:15:14.142Z,11.80
2019-02-20T18:17:42.672Z,11.17
2019-02-20T18:20:11.755Z,12.17
2019-02-20T18:22:40.256Z,12.70
2019-02-20T18:25:11.995Z,12.63
2019-02-20T18:27:40.555Z,11.83
2019-02-20T18:30:11.799Z,11.30
2019-02-20T18:32:41.901Z,12.97
2019-02-20T18:35:13.095Z,14.37
2019-02-20T18:37:41.592Z,12.63
2019-02-20T18:40:15.138Z,12.37
2019-02-20T18:42:43.621Z,12.83
2019-02-20T18:45:13.693Z,12.77
2019-02-20T18:47:42.246Z,13.20
2019-02-20T18:50:16.989Z,13.30
2019-02-20T18:52:47.179Z,13.10
2019-02-20T18:55:15.701Z,13.23
2019-02-20T18:57:44.239Z,14.63
2019-02-20T19:00:20.300Z,13.67
2019-02-20T19:02:48.786Z,12.90
2019-02-20T19:05:18.871Z,13.40
2019-02-20T19:07:47.899Z,13.30
2019-02-20T19:10:31.351Z,14.00
2019-02-20T19:13:20.816Z,13.97
2019-02-20T19:15:52.450Z,14.43
2019-02-20T19:18:36.037Z,13.87
2019-02-20T19:21:19.735Z,14.90
2019-02-20T19:23:57.250Z,14.27
2019-02-20T19:26:49.774Z,14.37
2019-02-20T19:29:51.846Z,13.57
2019-02-20T19:32:42.851Z,16.10
2019-02-20T19:35:23.501Z,16.30
2019-02-20T19:38:06.667Z,15.53
2019-02-20T19:40:42.644Z,16.13
2019-02-20T19:43:27.479Z,14.43
2019-02-20T19:46:17.763Z,16.37
2019-02-20T19:49:10.203Z,16.30
2019-02-20T19:51:47.468Z,17.20
2019-02-20T19:54:24.335Z,18.70
2019-02-20T19:57:07.495Z,17.87
2019-02-20T20:00:04.853Z,16.90
2019-02-20T20:02:39.222Z,17.80
2019-02-20T20:05:19.771Z,17.60
2019-02-20T20:08:07.916Z,17.23
2019-02-20T20:10:54.543Z,17.67
2019-02-20T20:13:47.388Z,17.87
2019-02-20T20:16:37.205Z,20.20
2019-02-20T20:19:13.655Z,18.60
2019-02-20T20:21:47.554Z,18.57
2019-02-20T20:24:35.418Z,20.87
2019-02-20T20:27:24.545Z,21.23
2019-02-20T20:30:12.437Z,20.20
2019-02-20T20:33:00.778Z,22.13
2019-02-20T20:35:41.278Z,19.40
2019-02-20T20:38:34.357Z,21.20
2019-02-20T20:41:20.968Z,21.80
2019-02-20T20:44:01.509Z,23.13
2019-02-20T20:47:06.123Z,22.77
2019-02-20T20:49:43.323Z,21.10
2019-02-20T20:52:20.605Z,21.30
2019-02-20T20:55:11.336Z,21.27
2019-02-20T20:58:05.462Z,21.67
2019-02-20T21:00:57.221Z,23.37
2019-02-20T21:03:31.126Z,21.40
2019-02-20T21:06:35.706Z,22.73
2019-02-20T21:09:12.861Z,21.93
2019-02-20T21:11:55.141Z,21.67
2019-02-20T21:14:34.388Z,22.20
2019-02-20T21:17:26.940Z,21.77
2019-02-20T21:20:03.054Z,22.57
2019-02-20T21:22:37.567Z,23.83
2019-02-20T21:25:17.977Z,22.33
2019-02-20T21:27:58.118Z,21.80
2019-02-20T21:30:38.575Z,20.97
2019-02-20T21:33:19.072Z,22.63
2019-02-20T21:35:56.542Z,21.53
2019-02-20T21:38:48.708Z,21.20
2019-02-20T21:41:38.106Z,21.73
2019-02-20T21:44:29.245Z,21.10
2019-02-20T21:47:15.569Z,19.87
2019-02-20T21:49:55.999Z,21.43
2019-02-20T21:52:36.533Z,20.73
2019-02-20T21:55:41.589Z,21.03
2019-02-20T21:58:21.326Z,21.73
2019-02-20T22:01:01.995Z,21.00
2019-02-20T22:03:50.054Z,19.43
2019-02-20T22:06:47.178Z,20.03
2019-02-20T22:09:30.806Z,17.83
2019-02-20T22:12:10.684Z,18.43
2019-02-20T22:14:48.302Z,17.00
2019-02-20T22:17:25.856Z,18.50
2019-02-20T22:19:57.512Z,19.20
2019-02-20T22:23:02.280Z,18.53
2019-02-20T22:25:42.784Z,18.77
2019-02-20T22:28:23.445Z,19.83
2019-02-20T22:30:57.593Z,18.87
2019-02-20T22:33:41.112Z,17.80
2019-02-20T22:36:27.958Z,16.90
2019-02-20T22:39:16.953Z,16.33
2019-02-20T22:42:05.088Z,17.80
2019-02-20T22:45:06.770Z,16.10
2019-02-20T22:47:41.209Z,15.77
2019-02-20T22:50:27.548Z,16.90
2019-02-20T22:53:17.316Z,16.40
2019-02-20T22:55:54.137Z,15.57
2019-02-20T22:58:34.948Z,17.30
2019-02-20T23:01:06.525Z,16.70
2019-02-20T23:03:38.176Z,17.10
2019-02-20T23:06:15.209Z,15.47
2019-02-20T23:08:55.256Z,15.97
2019-02-20T23:11:58.734Z,15.83
2019-02-20T23:14:42.201Z,18.13
2019-02-20T23:17:10.681Z,16.60
2019-02-20T23:19:39.147Z,16.97
2019-02-20T23:22:07.682Z,15.40
2019-02-20T23:24:36.243Z,17.77
2019-02-20T23:27:04.900Z,16.93
2019-02-20T23:29:33.383Z,15.30
2019-02-20T23:32:01.849Z,16.57
2019-02-20T23:50:59.059Z,17.07
2019-02-20T23:57:07.313Z,14.97
